Main page
METAR-TAF:

METAR-TAF

Airports :

Fuaʻamotu International Airport

Tongatapu, Tonga

latitude: 21-14S, longitude: 175-09W, elevation: 38 m

Current weather observation

The report was made 1 hour and 9 minutes ago, at 11:00 UTC
Wind 3 kt from the East/Southeast
Temperature 21°C
Humidity 100%
Pressure 1016 hPa
Visibility 10 km or more
Few clouds at a height of 1600 ft

METAR: NFTF 281100Z 12003KT 9999 FEW016 21/21 Q1016 RMK GRASS DEW

Time: 01:09 (12:09 UTC)

Forecast

The report was made 59 minutes ago, at 11:10 UTC
Forecast valid from 28 at 12 UTC to 29 at 12 UTC
Wind 5 kt from the East/Southeast
Visibility 10 km or more
Scattered clouds at a height of 1600 ft

TAF: NFTF 281110Z 2812/2912 12005KT 9999 SCT016

Weather observations and forecasts of more than 4000 airports (METAR and TAF reports).

The available stations are represented by yellow and red dots on the map.

Hover mouse over dot to see the name of the station.

Then click to see weather observations and forecasts.

To change the map : click on the green buttons with a black cross to zoom in, on the green button with a dash to zoom out, or on the green arrows for adjacent maps.


METAR-TAF: